MSC Kalina — 3ETW2 — position and weather

sailwx.info

Track history (hours):
 
Tides and Currents Weather Stations Pressure Air Temp Water Temp Dewpoint Dewpoint Depression Visibility Wind Speed Wind Dir Waves Ship Positions

MSC Kalina

Last reported at 2017-Oct-17 16:40 UTC. Time now 2017-Oct-18 06:09 UTC.
Position N 01°13' E 103°48'.

Length 366 m; draft 12.8 m.

Type: Ship (hazmat cat A). MMSI: 351361000.

Date/timePositionNaut miles runAvg speedWind from/ knotsBaromVisibWave heightAir tempDewpointWater temp
2017-Oct-17 16:40N 01°13' E 103°48'0 2.2
2017-Oct-17 16:29N 01°13' E 103°48'1 2.5
2017-Oct-17 15:58N 01°14' E 103°47'2 2.5
2017-Oct-17 15:17N 01°16' E 103°46'42 5.3
2017-Oct-17 07:19N 01°24' E 104°28'1617.3
2017-Oct-17 06:25N 01°16' E 104°14'818.2
2017-Oct-17 05:58N 01°15' E 104°06'817.9
2017-Oct-17 05:30N 01°14' E 103°58'815.7
2017-Oct-17 05:00N 01°12' E 103°51'4 8.4
2017-Oct-17 04:30N 01°14' E 103°47'3 5.3
2017-Oct-17 03:58N 01°16' E 103°46'0 0.0
2017-Oct-17 03:16N 01°16' E 103°46'0 0.0
2017-Oct-17 02:58N 01°16' E 103°46'0 0.0
2017-Oct-17 02:22N 01°16' E 103°46'0 0.0
2017-Oct-17 01:58N 01°16' E 103°46'0 0.0
2017-Oct-17 01:28N 01°16' E 103°46'0 0.0
2017-Oct-17 00:58N 01°16' E 103°46'0 0.0
2017-Oct-17 00:28N 01°16' E 103°46'0 0.0
2017-Oct-16 23:58N 01°16' E 103°46'0 0.0
2017-Oct-16 23:28N 01°16' E 103°46'0 0.0
2017-Oct-16 22:52N 01°16' E 103°46'0 0.0
2017-Oct-16 22:28N 01°16' E 103°46'0 0.0
2017-Oct-16 21:52N 01°16' E 103°46'0 0.0
2017-Oct-16 21:25N 01°16' E 103°46'0 0.0
2017-Oct-16 20:58N 01°16' E 103°46'0 0.0
2017-Oct-16 20:28N 01°16' E 103°46'0 0.0
2017-Oct-16 19:58N 01°16' E 103°46'0 0.0
2017-Oct-16 19:28N 01°16' E 103°46'0 0.0
2017-Oct-16 18:58N 01°16' E 103°46'0 0.0
2017-Oct-16 18:28N 01°16' E 103°46'0 0.0
2017-Oct-16 17:58N 01°16' E 103°46'0 0.0
2017-Oct-16 16:55N 01°16' E 103°46'0 0.0
2017-Oct-16 16:25N 01°16' E 103°46'0 0.0
2017-Oct-16 15:55N 01°16' E 103°46'0 0.0
2017-Oct-16 15:28N 01°16' E 103°46'0 0.0
2017-Oct-16 14:49N 01°16' E 103°46'0 0.0
2017-Oct-16 13:58N 01°16' E 103°46'0 0.0
2017-Oct-16 13:28N 01°16' E 103°46'0 0.0
2017-Oct-16 12:55N 01°16' E 103°46'0 0.0
2017-Oct-16 12:28N 01°16' E 103°46'0 0.0
2017-Oct-16 11:58N 01°16' E 103°46'0 0.0
2017-Oct-16 11:28N 01°16' E 103°46'0 0.0
2017-Oct-16 10:58N 01°16' E 103°46'0 0.0
2017-Oct-16 10:25N 01°16' E 103°46'0 0.0
2017-Oct-16 09:58N 01°16' E 103°46'0 0.0
2017-Oct-16 09:25N 01°16' E 103°46'0 0.0
2017-Oct-16 08:58N 01°16' E 103°46'0 0.0
2017-Oct-16 08:28N 01°16' E 103°46'0 0.0
2017-Oct-16 07:58N 01°16' E 103°46'0 0.0
2017-Oct-15 12:40N 01°16' E 103°46'0 0.5
2017-Oct-15 12:27N 01°16' E 103°46'0 0.6
2017-Oct-15 11:41N 01°16' E 103°45'0 0.8
2017-Oct-15 11:29N 01°16' E 103°45'2 3.2
2017-Oct-15 11:00N 01°15' E 103°45'611.9
2017-Oct-15 10:30N 01°12' E 103°40'4 8.7
2017-Oct-15 10:00N 01°12' E 103°36'0 0.1
2017-Oct-15 07:42N 01°13' E 103°36'0 0.5
2017-Oct-15 07:30N 01°12' E 103°36'3 5.3
2017-Oct-15 07:01N 01°12' E 103°33'5 9.6
2017-Oct-15 06:30N 01°11' E 103°28'610.2
2017-Oct-15 05:57N 01°13' E 103°23'711.4
2017-Oct-15 05:21N 01°17' E 103°18'  
Track history (hours):
 
Tides and Currents Weather Stations Pressure Air Temp Water Temp Dewpoint Dewpoint Depression Visibility Wind Speed Wind Dir Waves Ship Positions

MSC Kalina

Last reported at 2017-Oct-17 16:40 UTC. Time now 2017-Oct-18 06:09 UTC.
Position N 01°13' E 103°48'.

Length 366 m; draft 12.8 m.

Type: Ship (hazmat cat A). MMSI: 351361000.

Date/timePositionNaut miles runAvg speedWind from/ knotsBaromVisibWave heightAir tempDewpointWater temp
2017-Oct-17 16:40N 01°13' E 103°48'0 2.2
2017-Oct-17 16:29N 01°13' E 103°48'1 2.5
2017-Oct-17 15:58N 01°14' E 103°47'2 2.5
2017-Oct-17 15:17N 01°16' E 103°46'42 5.3
2017-Oct-17 07:19N 01°24' E 104°28'1617.3
2017-Oct-17 06:25N 01°16' E 104°14'818.2
2017-Oct-17 05:58N 01°15' E 104°06'817.9
2017-Oct-17 05:30N 01°14' E 103°58'815.7
2017-Oct-17 05:00N 01°12' E 103°51'4 8.4
2017-Oct-17 04:30N 01°14' E 103°47'3 5.3
2017-Oct-17 03:58N 01°16' E 103°46'0 0.0
2017-Oct-17 03:16N 01°16' E 103°46'0 0.0
2017-Oct-17 02:58N 01°16' E 103°46'0 0.0
2017-Oct-17 02:22N 01°16' E 103°46'0 0.0
2017-Oct-17 01:58N 01°16' E 103°46'0 0.0
2017-Oct-17 01:28N 01°16' E 103°46'0 0.0
2017-Oct-17 00:58N 01°16' E 103°46'0 0.0
2017-Oct-17 00:28N 01°16' E 103°46'0 0.0
2017-Oct-16 23:58N 01°16' E 103°46'0 0.0
2017-Oct-16 23:28N 01°16' E 103°46'0 0.0
2017-Oct-16 22:52N 01°16' E 103°46'0 0.0
2017-Oct-16 22:28N 01°16' E 103°46'0 0.0
2017-Oct-16 21:52N 01°16' E 103°46'0 0.0
2017-Oct-16 21:25N 01°16' E 103°46'0 0.0
2017-Oct-16 20:58N 01°16' E 103°46'0 0.0
2017-Oct-16 20:28N 01°16' E 103°46'0 0.0
2017-Oct-16 19:58N 01°16' E 103°46'0 0.0
2017-Oct-16 19:28N 01°16' E 103°46'0 0.0
2017-Oct-16 18:58N 01°16' E 103°46'0 0.0
2017-Oct-16 18:28N 01°16' E 103°46'0 0.0
2017-Oct-16 17:58N 01°16' E 103°46'0 0.0
2017-Oct-16 16:55N 01°16' E 103°46'0 0.0
2017-Oct-16 16:25N 01°16' E 103°46'0 0.0
2017-Oct-16 15:55N 01°16' E 103°46'0 0.0
2017-Oct-16 15:28N 01°16' E 103°46'0 0.0
2017-Oct-16 14:49N 01°16' E 103°46'0 0.0
2017-Oct-16 13:58N 01°16' E 103°46'0 0.0
2017-Oct-16 13:28N 01°16' E 103°46'0 0.0
2017-Oct-16 12:55N 01°16' E 103°46'0 0.0
2017-Oct-16 12:28N 01°16' E 103°46'0 0.0
2017-Oct-16 11:58N 01°16' E 103°46'0 0.0
2017-Oct-16 11:28N 01°16' E 103°46'0 0.0
2017-Oct-16 10:58N 01°16' E 103°46'0 0.0
2017-Oct-16 10:25N 01°16' E 103°46'0 0.0
2017-Oct-16 09:58N 01°16' E 103°46'0 0.0
2017-Oct-16 09:25N 01°16' E 103°46'0 0.0
2017-Oct-16 08:58N 01°16' E 103°46'0 0.0
2017-Oct-16 08:28N 01°16' E 103°46'0 0.0
2017-Oct-16 07:58N 01°16' E 103°46'0 0.0
2017-Oct-15 12:40N 01°16' E 103°46'0 0.5
2017-Oct-15 12:27N 01°16' E 103°46'0 0.6
2017-Oct-15 11:41N 01°16' E 103°45'0 0.8
2017-Oct-15 11:29N 01°16' E 103°45'2 3.2
2017-Oct-15 11:00N 01°15' E 103°45'611.9
2017-Oct-15 10:30N 01°12' E 103°40'4 8.7
2017-Oct-15 10:00N 01°12' E 103°36'0 0.1
2017-Oct-15 07:42N 01°13' E 103°36'0 0.5
2017-Oct-15 07:30N 01°12' E 103°36'3 5.3
2017-Oct-15 07:01N 01°12' E 103°33'5 9.6
2017-Oct-15 06:30N 01°11' E 103°28'610.2
2017-Oct-15 05:57N 01°13' E 103°23'711.4
2017-Oct-15 05:21N 01°17' E 103°18'  

Dump ship's entire track history